Time;durP1;ratioP1;P1;durP2;ratioP2;P2;SDS_P1;SDS_P2;PMS_P1;PMS_P2;Temp;Humidity;BMP_temperature;BMP_pressure;BME280_temperature;BME280_humidity;BME280_pressure;Samples;Min_cycle;Max_cycle;Signal;HPM_P1;HPM_P2
2022/09/09 00:01:56;;;;;;;2.75;2.53;;;19.60;87.20;;;;;;5094866;28;20185;-85
2022/09/09 00:04:33;;;;;;;6.93;2.70;;;19.60;86.90;;;;;;5068721;28;20221;-85
2022/09/09 00:07:26;;;;;;;2.60;2.40;;;19.50;89.00;;;;;;5103651;28;20266;-85
2022/09/09 00:10:14;;;;;;;3.95;2.33;;;19.30;90.00;;;;;;5090336;28;20251;-85
2022/09/09 00:12:55;;;;;;;3.22;2.60;;;19.30;89.70;;;;;;5109293;28;20182;-86
2022/09/09 00:15:41;;;;;;;3.97;2.63;;;19.20;90.00;;;;;;5118046;28;20187;-86
2022/09/09 00:18:51;;;;;;;6.20;3.10;;;19.20;89.80;;;;;;5118127;28;20196;-85
2022/09/09 00:21:18;;;;;;;4.97;2.83;;;19.20;91.10;;;;;;5099327;28;20181;-85
2022/09/09 00:23:56;;;;;;;4.18;2.70;;;19.20;90.70;;;;;;5097579;28;20649;-85
2022/09/09 00:26:34;;;;;;;4.93;3.15;;;19.30;90.00;;;;;;5084826;28;20189;-85
2022/09/09 00:29:25;;;;;;;2.83;2.38;;;19.40;90.30;;;;;;5099638;28;20208;-85
2022/09/09 00:31:55;;;;;;;3.58;2.88;;;19.40;89.80;;;;;;5099929;28;20183;-85
2022/09/09 00:34:26;;;;;;;2.90;2.60;;;19.30;90.20;;;;;;5092851;28;20211;-85
2022/09/09 00:36:53;;;;;;;2.78;2.58;;;19.40;90.40;;;;;;5094700;28;20178;-85
2022/09/09 00:39:29;;;;;;;3.72;3.03;;;19.50;90.50;;;;;;5102208;28;20211;-86
2022/09/09 00:42:13;;;;;;;2.65;2.42;;;19.40;91.20;;;;;;5098192;28;20181;-85
2022/09/09 00:45:01;;;;;;;3.65;2.90;;;19.30;90.50;;;;;;5092783;28;20176;-86
2022/09/09 00:47:44;;;;;;;3.88;3.00;;;19.30;90.00;;;;;;5095154;28;20183;-85
2022/09/09 00:50:32;;;;;;;3.13;2.85;;;19.00;90.30;;;;;;5091199;28;20223;-87
2022/09/09 00:53:23;;;;;;;3.83;2.72;;;18.80;87.70;;;;;;5083564;28;20207;-86
2022/09/09 00:55:56;;;;;;;5.05;2.80;;;18.60;90.20;;;;;;5087264;28;20207;-86
2022/09/09 00:58:21;;;;;;;3.38;2.72;;;18.30;92.10;;;;;;5095702;28;20416;-87
2022/09/09 01:00:54;;;;;;;4.15;2.70;;;18.30;92.10;;;;;;5102714;28;20787;-86
2022/09/09 01:03:42;;;;;;;5.65;2.53;;;18.20;92.70;;;;;;5106186;28;20210;-86
2022/09/09 01:06:29;;;;;;;3.47;2.42;;;18.10;93.00;;;;;;5104867;28;20179;-86
2022/09/09 01:09:04;;;;;;;4.13;2.55;;;18.10;93.00;;;;;;5104418;28;20297;-86
2022/09/09 01:11:49;;;;;;;5.38;2.65;;;18.00;93.90;;;;;;5104363;28;20257;-88
2022/09/09 01:14:33;;;;;;;2.65;2.45;;;18.00;93.40;;;;;;5097600;28;20700;-87
2022/09/09 01:17:22;;;;;;;3.75;2.50;;;17.90;94.20;;;;;;5089711;28;20216;-86
2022/09/09 01:20:01;;;;;;;2.85;2.45;;;17.80;93.30;;;;;;5085447;28;20228;-86
2022/09/09 01:23:04;;;;;;;3.23;2.33;;;17.70;92.40;;;;;;5098318;28;20185;-84
2022/09/09 01:26:08;;;;;;;3.60;2.60;;;17.80;91.50;;;;;;5100430;28;20663;-86
2022/09/09 01:28:36;;;;;;;5.77;2.40;;;17.70;92.40;;;;;;5105250;28;20176;-86
2022/09/09 01:31:05;;;;;;;4.30;2.40;;;17.60;94.50;;;;;;5092652;28;20235;-86
2022/09/09 01:33:31;;;;;;;4.30;2.23;;;17.50;97.30;;;;;;5092584;28;20192;-85
2022/09/09 01:36:12;;;;;;;4.23;2.57;;;17.30;98.70;;;;;;5095795;28;20203;-86
2022/09/09 01:38:38;;;;;;;3.27;2.13;;;17.20;99.90;;;;;;5090885;28;20249;-86
2022/09/09 01:41:04;;;;;;;2.90;2.10;;;17.10;99.90;;;;;;5088090;28;20183;-86
2022/09/09 01:43:30;;;;;;;2.33;1.93;;;16.90;99.90;;;;;;5097356;28;20191;-87
2022/09/09 01:46:00;;;;;;;5.27;2.20;;;16.80;99.90;;;;;;5100386;28;20194;-86
2022/09/09 01:48:26;;;;;;;4.47;2.63;;;16.80;99.90;;;;;;5100130;28;20193;-86
2022/09/09 01:50:52;;;;;;;3.63;2.20;;;16.80;99.90;;;;;;5097201;28;20606;-87
2022/09/09 01:53:19;;;;;;;4.23;2.40;;;16.80;99.90;;;;;;5093849;28;20204;-86
2022/09/09 01:55:59;;;;;;;3.33;2.10;;;16.80;99.90;;;;;;5094433;28;20193;-86
2022/09/09 01:58:49;;;;;;;4.37;2.60;;;16.90;99.90;;;;;;5088515;28;20222;-87
2022/09/09 02:01:36;;;;;;;3.47;2.50;;;16.90;99.90;;;;;;5094908;28;20193;-86
2022/09/09 02:04:06;;;;;;;2.67;2.27;;;16.90;99.90;;;;;;5101095;28;20182;-87
2022/09/09 02:06:36;;;;;;;4.10;2.37;;;16.70;99.90;;;;;;5089828;28;20195;-87
2022/09/09 02:09:05;;;;;;;2.73;2.13;;;16.60;99.90;;;;;;5107093;28;20216;-87
2022/09/09 02:11:32;;;;;;;2.40;1.93;;;16.60;99.90;;;;;;5117333;28;20238;-87
2022/09/09 02:14:06;;;;;;;4.20;2.00;;;16.60;99.90;;;;;;5103479;28;20554;-87
2022/09/09 02:17:06;;;;;;;1.97;1.87;;;16.60;99.90;;;;;;5096699;28;20221;-86
2022/09/09 02:19:39;;;;;;;3.33;1.90;;;16.60;99.90;;;;;;5086363;28;20237;-86
2022/09/09 02:22:05;;;;;;;2.90;1.87;;;16.70;99.90;;;;;;5099267;28;20186;-86
2022/09/09 02:24:35;;;;;;;5.57;2.10;;;16.60;99.90;;;;;;5090327;28;20600;-86
2022/09/09 02:27:04;;;;;;;3.27;1.80;;;16.80;99.90;;;;;;5092954;28;20678;-86
2022/09/09 02:29:42;;;;;;;2.17;1.90;;;16.90;99.90;;;;;;5093132;28;20253;-87
2022/09/09 02:32:18;;;;;;;3.83;2.00;;;17.10;99.90;;;;;;5094077;28;20227;-86
2022/09/09 02:34:50;;;;;;;2.80;1.73;;;17.20;99.90;;;;;;5090083;28;20197;-86
2022/09/09 02:37:19;;;;;;;3.15;1.92;;;17.20;99.90;;;;;;5083766;28;20212;-86
2022/09/09 02:39:44;;;;;;;3.53;1.73;;;17.10;99.90;;;;;;5096189;28;20231;-86
2022/09/09 02:42:10;;;;;;;2.17;1.90;;;17.10;99.90;;;;;;5091197;28;20187;-86
2022/09/09 02:44:37;;;;;;;3.25;1.80;;;17.10;99.70;;;;;;5084744;28;20186;-86
2022/09/09 02:47:12;;;;;;;2.55;1.65;;;17.20;99.90;;;;;;5080682;28;20198;-86
2022/09/09 02:50:03;;;;;;;2.40;2.20;;;17.10;99.90;;;;;;5081290;28;20203;-86
2022/09/09 02:52:51;;;;;;;2.00;1.90;;;17.20;99.90;;;;;;5087095;28;20194;-86
2022/09/09 02:55:26;;;;;;;3.70;2.00;;;17.20;99.30;;;;;;5083294;28;20769;-86
2022/09/09 02:57:52;;;;;;;3.35;1.92;;;17.30;99.00;;;;;;5088177;28;20183;-86
2022/09/09 03:00:24;;;;;;;2.40;1.90;;;17.30;99.00;;;;;;5090177;28;20222;-86
2022/09/09 03:02:51;;;;;;;2.00;1.80;;;17.50;98.80;;;;;;5089555;28;20305;-86
2022/09/09 03:05:17;;;;;;;2.00;1.90;;;17.60;97.90;;;;;;5091636;28;20187;-86
2022/09/09 03:07:42;;;;;;;2.17;2.00;;;17.60;96.20;;;;;;5096739;28;20182;-86
2022/09/09 03:10:10;;;;;;;2.97;1.85;;;17.60;96.60;;;;;;5087822;28;20235;-86
2022/09/09 03:12:36;;;;;;;2.30;1.80;;;17.50;97.90;;;;;;5087337;28;20189;-86
2022/09/09 03:15:01;;;;;;;3.08;2.00;;;17.40;97.90;;;;;;5081056;28;20273;-86
2022/09/09 03:17:27;;;;;;;2.63;1.70;;;17.40;98.10;;;;;;5086528;28;20681;-86
2022/09/09 03:19:54;;;;;;;4.97;2.03;;;17.40;98.70;;;;;;5079537;28;20723;-86
2022/09/09 03:22:21;;;;;;;2.38;1.90;;;17.40;98.00;;;;;;5090048;28;20194;-86
2022/09/09 03:24:46;;;;;;;2.17;1.98;;;17.50;98.60;;;;;;5087408;28;20187;-86
2022/09/09 03:27:14;;;;;;;3.15;2.00;;;17.50;97.50;;;;;;5092578;28;20696;-86
2022/09/09 03:29:40;;;;;;;1.85;1.75;;;17.50;98.00;;;;;;5098137;28;20202;-86
2022/09/09 03:32:05;;;;;;;4.38;2.10;;;17.60;98.00;;;;;;5088239;28;20187;-86
2022/09/09 03:34:31;;;;;;;2.38;1.90;;;17.70;97.50;;;;;;5079352;28;20214;-87
2022/09/09 03:36:57;;;;;;;2.03;1.83;;;17.60;96.80;;;;;;5083505;28;20941;-86
2022/09/09 03:39:23;;;;;;;2.25;1.90;;;17.70;97.00;;;;;;5085165;28;20764;-86
2022/09/09 03:41:49;;;;;;;1.90;1.80;;;17.80;96.50;;;;;;5083651;28;20221;-86
2022/09/09 03:44:15;;;;;;;2.55;2.00;;;17.80;96.20;;;;;;5074274;28;20195;-86
2022/09/09 03:46:41;;;;;;;1.80;1.70;;;18.00;96.90;;;;;;5090671;28;20190;-86
2022/09/09 03:49:06;;;;;;;2.20;2.00;;;18.00;95.90;;;;;;5089072;28;20214;-86
2022/09/09 03:51:36;;;;;;;2.00;1.90;;;18.10;95.20;;;;;;5096890;28;20187;-86
2022/09/09 03:54:01;;;;;;;2.72;1.90;;;18.10;94.70;;;;;;5085891;28;20187;-86
2022/09/09 03:56:27;;;;;;;2.20;2.10;;;18.10;94.80;;;;;;5089492;28;20222;-86
2022/09/09 03:58:52;;;;;;;2.47;1.92;;;18.10;95.10;;;;;;5091357;28;20227;-86
2022/09/09 04:01:18;;;;;;;2.40;2.08;;;18.10;95.40;;;;;;5084842;28;20186;-86
2022/09/09 04:03:45;;;;;;;2.15;1.95;;;18.00;95.00;;;;;;5083080;28;20195;-86
2022/09/09 04:06:12;;;;;;;1.80;1.70;;;17.90;95.30;;;;;;5090678;28;20198;-86
2022/09/09 04:08:38;;;;;;;3.33;2.00;;;17.80;95.60;;;;;;5079507;28;20207;-86
2022/09/09 04:11:06;;;;;;;2.28;2.00;;;17.80;96.40;;;;;;5085607;28;20525;-86
2022/09/09 04:13:37;;;;;;;2.67;2.17;;;17.70;96.60;;;;;;5081311;28;20580;-86
2022/09/09 04:16:03;;;;;;;4.25;2.00;;;17.70;97.20;;;;;;5114524;28;20178;-87
2022/09/09 04:18:29;;;;;;;2.72;2.20;;;17.50;97.40;;;;;;5109397;28;20201;-87
2022/09/09 04:20:57;;;;;;;2.00;1.90;;;17.50;96.90;;;;;;5102328;28;20191;-86
2022/09/09 04:23:24;;;;;;;2.60;1.90;;;17.40;98.00;;;;;;5093642;28;20186;-86
2022/09/09 04:25:51;;;;;;;2.38;1.77;;;17.30;98.10;;;;;;5082147;28;20186;-86
2022/09/09 04:28:19;;;;;;;2.80;1.98;;;17.40;97.80;;;;;;5093829;28;20210;-86
2022/09/09 04:30:45;;;;;;;2.50;2.00;;;17.40;97.10;;;;;;5094902;28;20179;-86
2022/09/09 04:33:12;;;;;;;3.10;1.95;;;17.40;96.90;;;;;;5085176;28;20210;-86
2022/09/09 04:35:38;;;;;;;3.58;1.90;;;17.50;96.80;;;;;;5083446;28;20195;-86
2022/09/09 04:38:07;;;;;;;2.75;2.30;;;17.50;98.10;;;;;;5090436;28;20182;-86
2022/09/09 04:40:33;;;;;;;2.78;2.03;;;17.60;97.20;;;;;;5089663;28;20226;-86
2022/09/09 04:43:00;;;;;;;4.35;2.15;;;17.60;96.30;;;;;;5087424;28;20645;-86
2022/09/09 04:45:26;;;;;;;2.42;2.22;;;17.50;96.40;;;;;;5090079;28;20190;-86
2022/09/09 04:47:52;;;;;;;1.98;1.88;;;17.50;96.20;;;;;;5084133;28;20187;-86
2022/09/09 04:50:18;;;;;;;2.15;1.83;;;17.50;96.10;;;;;;5091834;28;20206;-86
2022/09/09 04:52:44;;;;;;;3.85;2.00;;;17.50;95.40;;;;;;5078031;28;20183;-86
2022/09/09 04:55:10;;;;;;;1.95;1.85;;;17.40;96.70;;;;;;5086572;28;20247;-86
2022/09/09 04:57:35;;;;;;;2.75;1.90;;;17.20;96.90;;;;;;5092702;28;20187;-87
2022/09/09 05:00:02;;;;;;;2.17;2.08;;;17.30;96.90;;;;;;5118960;28;20295;-86
2022/09/09 05:02:28;;;;;;;2.35;2.00;;;17.00;97.10;;;;;;5097146;28;20191;-85
2022/09/09 05:04:55;;;;;;;2.53;1.80;;;17.00;96.90;;;;;;5089630;28;20200;-86
2022/09/09 05:07:20;;;;;;;2.50;2.03;;;17.10;97.40;;;;;;5094086;28;20182;-86
2022/09/09 05:09:47;;;;;;;2.13;2.03;;;17.10;96.50;;;;;;5093935;28;20320;-86
2022/09/09 05:12:16;;;;;;;2.90;2.33;;;17.10;97.70;;;;;;5090678;28;20680;-86
2022/09/09 05:14:42;;;;;;;2.30;2.10;;;17.20;96.20;;;;;;5090554;28;20201;-86
2022/09/09 05:17:08;;;;;;;2.33;2.13;;;17.20;95.50;;;;;;5095279;28;20649;-86
2022/09/09 05:19:34;;;;;;;3.50;2.00;;;17.10;96.80;;;;;;5079690;28;20265;-86
2022/09/09 05:22:00;;;;;;;2.33;1.95;;;17.20;97.30;;;;;;5092831;28;20233;-86
2022/09/09 05:24:26;;;;;;;1.95;1.75;;;17.30;95.10;;;;;;5096176;28;20199;-85
2022/09/09 05:26:52;;;;;;;3.35;2.33;;;17.20;95.70;;;;;;5096189;28;20193;-86
2022/09/09 05:29:19;;;;;;;4.00;2.00;;;17.30;96.80;;;;;;5095794;28;20221;-86
2022/09/09 05:31:45;;;;;;;2.50;2.13;;;17.30;96.30;;;;;;5093724;28;20248;-86
2022/09/09 05:34:11;;;;;;;2.10;1.90;;;17.40;96.90;;;;;;5087714;28;20187;-86
2022/09/09 05:36:37;;;;;;;3.00;2.10;;;17.40;96.00;;;;;;5086304;28;20218;-86
2022/09/09 05:39:03;;;;;;;4.63;2.85;;;17.30;96.30;;;;;;5081825;28;20219;-86
2022/09/09 05:41:29;;;;;;;2.40;1.85;;;17.30;96.80;;;;;;5085632;28;20187;-87
2022/09/09 05:43:55;;;;;;;4.65;2.20;;;17.30;96.50;;;;;;5091344;28;20193;-86
2022/09/09 05:46:24;;;;;;;3.60;2.20;;;17.10;96.80;;;;;;5089129;28;20192;-86
2022/09/09 05:48:51;;;;;;;3.05;2.28;;;17.10;96.70;;;;;;5086228;28;20212;-87
2022/09/09 05:51:26;;;;;;;4.35;2.60;;;17.10;95.90;;;;;;5084834;28;20194;-86
2022/09/09 05:53:52;;;;;;;2.30;2.10;;;17.20;96.60;;;;;;5087804;28;20206;-87
2022/09/09 05:56:21;;;;;;;3.13;2.30;;;17.10;96.50;;;;;;5087179;28;20233;-86
2022/09/09 05:58:47;;;;;;;4.47;2.20;;;17.20;96.50;;;;;;5087753;28;20214;-86
2022/09/09 06:01:22;;;;;;;2.50;2.30;;;17.30;95.70;;;;;;5090444;28;20656;-86
2022/09/09 06:03:49;;;;;;;5.05;1.95;;;17.40;95.20;;;;;;5087432;28;20599;-86
2022/09/09 06:06:23;;;;;;;2.58;2.15;;;17.50;94.20;;;;;;5085546;28;20179;-86
2022/09/09 06:08:51;;;;;;;3.13;2.10;;;17.60;94.00;;;;;;5087536;28;20213;-86
2022/09/09 06:11:22;;;;;;;2.72;2.20;;;17.60;93.40;;;;;;5087034;28;20211;-86
2022/09/09 06:13:50;;;;;;;2.10;2.00;;;17.60;94.30;;;;;;5085767;28;20201;-86
2022/09/09 06:16:18;;;;;;;3.95;2.25;;;17.60;94.90;;;;;;5083346;28;20191;-86
2022/09/09 06:18:44;;;;;;;3.65;2.50;;;17.60;94.90;;;;;;5084618;28;20231;-86
2022/09/09 06:21:16;;;;;;;2.78;2.50;;;17.60;94.30;;;;;;5083871;28;20190;-86
2022/09/09 06:23:42;;;;;;;5.90;2.25;;;17.80;94.00;;;;;;5084638;28;20262;-86
2022/09/09 06:26:20;;;;;;;3.83;2.58;;;17.90;93.80;;;;;;5083697;28;20629;-86
2022/09/09 06:28:47;;;;;;;4.13;2.42;;;18.00;92.80;;;;;;5085459;28;20214;-87
2022/09/09 06:31:21;;;;;;;3.15;1.98;;;18.00;91.70;;;;;;5088141;28;20191;-86
2022/09/09 06:33:49;;;;;;;4.07;2.40;;;18.10;92.60;;;;;;5081614;28;20689;-86
2022/09/09 06:36:20;;;;;;;2.35;2.15;;;18.20;92.10;;;;;;5085077;28;20277;-86
2022/09/09 06:38:46;;;;;;;3.10;2.20;;;18.10;91.50;;;;;;5083275;28;20219;-86
2022/09/09 06:41:14;;;;;;;3.42;2.20;;;18.00;92.00;;;;;;5081920;28;20197;-86
2022/09/09 06:43:39;;;;;;;2.85;2.10;;;18.10;92.00;;;;;;5081700;28;20186;-86
2022/09/09 06:46:12;;;;;;;3.78;2.30;;;18.10;92.20;;;;;;5080706;28;20175;-86
2022/09/09 06:48:41;;;;;;;3.33;2.15;;;18.10;91.80;;;;;;5083574;28;20234;-86
2022/09/09 06:51:16;;;;;;;2.85;2.15;;;18.20;90.60;;;;;;5082308;28;20449;-86
2022/09/09 06:53:44;;;;;;;3.45;2.08;;;18.30;90.70;;;;;;5080993;28;20300;-86
2022/09/09 06:56:09;;;;;;;5.97;2.63;;;18.10;92.70;;;;;;5081080;28;20187;-86
2022/09/09 06:58:44;;;;;;;2.88;2.58;;;18.10;93.20;;;;;;5085519;28;20211;-86
2022/09/09 07:01:12;;;;;;;6.70;2.53;;;18.10;93.60;;;;;;5086328;28;20307;-86
2022/09/09 07:03:38;;;;;;;3.50;2.30;;;18.20;92.50;;;;;;5083796;28;20823;-86
2022/09/09 07:06:05;;;;;;;4.60;2.38;;;18.10;92.60;;;;;;5084578;28;20189;-86
2022/09/09 07:08:31;;;;;;;2.60;2.10;;;18.20;92.50;;;;;;5046946;28;1136043;-86
2022/09/09 07:11:04;;;;;;;4.63;2.40;;;18.30;91.00;;;;;;5089380;28;20645;-86
2022/09/09 07:13:31;;;;;;;2.42;2.22;;;18.10;91.30;;;;;;5092275;28;20193;-86
2022/09/09 07:16:08;;;;;;;2.72;2.45;;;18.20;92.10;;;;;;5088216;28;20194;-86
2022/09/09 07:18:34;;;;;;;3.05;2.30;;;18.10;92.50;;;;;;5089277;28;20267;-86
2022/09/09 07:21:00;;;;;;;4.95;2.45;;;18.30;91.90;;;;;;5089780;28;20207;-86
2022/09/09 07:23:26;;;;;;;4.82;2.42;;;18.30;93.30;;;;;;5091697;28;20183;-86
2022/09/09 07:25:52;;;;;;;5.80;2.60;;;18.30;90.60;;;;;;5094175;28;20205;-86
2022/09/09 07:28:19;;;;;;;4.13;2.38;;;18.30;92.20;;;;;;5103240;28;20179;-86
2022/09/09 07:30:56;;;;;;;4.03;2.28;;;18.20;92.30;;;;;;5104140;28;20170;-86
2022/09/09 07:33:23;;;;;;;3.45;2.40;;;18.30;92.00;;;;;;5091575;28;20198;-86
2022/09/09 07:35:49;;;;;;;2.47;2.20;;;18.40;91.70;;;;;;5087665;28;20189;-86
2022/09/09 07:38:15;;;;;;;3.67;2.75;;;18.40;89.60;;;;;;5086388;28;20191;-86
2022/09/09 07:40:41;;;;;;;4.57;2.40;;;18.30;91.30;;;;;;5088029;28;20237;-86
2022/09/09 07:43:06;;;;;;;5.10;2.67;;;18.40;92.00;;;;;;5086370;28;20190;-86
2022/09/09 07:45:34;;;;;;;2.65;2.10;;;18.50;92.10;;;;;;5089781;28;20282;-86
2022/09/09 07:48:00;;;;;;;3.03;2.78;;;18.50;88.90;;;;;;5112981;28;20191;-86
2022/09/09 07:50:26;;;;;;;3.90;2.70;;;18.60;90.10;;;;;;5114671;28;20211;-86
2022/09/09 07:52:53;;;;;;;8.85;2.85;;;18.50;90.20;;;;;;5073837;28;20191;-85
2022/09/09 07:55:19;;;;;;;2.65;2.30;;;18.50;90.70;;;;;;5092665;28;20198;-85
2022/09/09 07:57:45;;;;;;;4.22;2.50;;;18.70;88.80;;;;;;5092269;28;20262;-86
2022/09/09 08:00:11;;;;;;;2.90;2.50;;;18.70;89.00;;;;;;5090723;28;20249;-86
2022/09/09 08:02:37;;;;;;;2.50;2.05;;;18.80;89.00;;;;;;5094644;28;20194;-86
2022/09/09 08:05:03;;;;;;;3.15;2.47;;;18.90;87.20;;;;;;5095431;28;20205;-86
2022/09/09 08:07:29;;;;;;;4.97;2.35;;;18.80;86.80;;;;;;5095665;28;20198;-86
2022/09/09 08:09:55;;;;;;;4.85;2.50;;;18.90;88.10;;;;;;5095981;28;20318;-86
2022/09/09 08:12:21;;;;;;;3.28;2.40;;;19.10;87.30;;;;;;5094151;28;20580;-86
2022/09/09 08:14:48;;;;;;;5.00;2.30;;;19.30;86.30;;;;;;5094505;28;20217;-86
2022/09/09 08:17:14;;;;;;;4.82;2.35;;;19.20;87.00;;;;;;5096831;28;20250;-87
2022/09/09 08:19:40;;;;;;;3.97;2.47;;;19.30;86.80;;;;;;5091254;28;20222;-87
2022/09/09 08:22:05;;;;;;;7.22;2.45;;;19.20;87.60;;;;;;5093993;28;20206;-86
2022/09/09 08:24:31;;;;;;;4.95;2.80;;;18.90;91.10;;;;;;5091453;28;20841;-88
2022/09/09 08:26:57;;;;;;;4.60;2.47;;;18.80;91.90;;;;;;5100776;28;20202;-89
2022/09/09 08:29:23;;;;;;;6.18;3.05;;;18.60;93.20;;;;;;5109244;28;20234;-86
2022/09/09 08:31:54;;;;;;;2.97;2.40;;;18.70;93.60;;;;;;5105576;28;20184;-84
2022/09/09 08:34:21;;;;;;;4.10;2.42;;;18.70;94.00;;;;;;5107358;28;20281;-87
2022/09/09 08:36:49;;;;;;;4.30;2.63;;;18.70;94.70;;;;;;5091100;28;20178;-87
2022/09/09 08:39:16;;;;;;;3.03;2.55;;;18.70;95.60;;;;;;5092630;28;20222;-87
2022/09/09 08:42:11;;;;;;;4.78;2.80;;;18.80;93.70;;;;;;5094397;28;20187;-86
2022/09/09 08:44:40;;;;;;;4.45;2.60;;;18.90;91.70;;;;;;5089486;28;20236;-87
2022/09/09 08:47:40;;;;;;;4.30;2.47;;;19.00;91.90;;;;;;5091099;28;20210;-88
2022/09/09 08:50:27;;;;;;;6.78;2.92;;;18.80;92.60;;;;;;5095514;28;20764;-86
2022/09/09 08:53:16;;;;;;;4.72;3.05;;;18.60;95.40;;;;;;5097291;28;20183;-86
2022/09/09 08:55:55;;;;;;;6.65;2.72;;;18.40;95.10;;;;;;5092733;28;20499;-86
2022/09/09 08:58:25;;;;;;;3.17;2.88;;;18.20;99.30;;;;;;5099832;28;20217;-86
2022/09/09 09:01:42;;;;;;;6.43;2.77;;;18.10;99.90;;;;;;5107682;28;20192;-87
2022/09/09 09:04:38;;;;;;;3.65;2.30;;;18.00;99.90;;;;;;5008634;28;20656;-86
2022/09/09 09:07:32;;;;;;;3.65;2.30;;;18.00;99.90;;;;;;5094970;28;20196;-87
2022/09/09 09:10:14;;;;;;;2.53;2.30;;;18.10;99.90;;;;;;5089853;28;20225;-86
2022/09/09 09:12:44;;;;;;;5.57;2.60;;;18.10;98.30;;;;;;5096075;28;20266;-86
2022/09/09 09:15:26;;;;;;;3.50;2.60;;;18.10;99.90;;;;;;5089547;28;20657;-86
2022/09/09 09:17:52;;;;;;;2.90;2.38;;;18.10;99.90;;;;;;5092520;28;20207;-87
2022/09/09 09:20:25;;;;;;;7.20;2.42;;;18.30;99.90;;;;;;5094709;28;20226;-87
2022/09/09 09:22:54;;;;;;;3.75;2.60;;;18.20;96.30;;;;;;5093679;28;20195;-86
2022/09/09 09:25:31;;;;;;;4.35;2.55;;;18.50;96.90;;;;;;5093034;28;20210;-86
2022/09/09 09:28:05;;;;;;;3.67;2.38;;;18.80;95.30;;;;;;5094069;28;20187;-86
2022/09/09 09:30:45;;;;;;;2.95;2.50;;;18.80;94.60;;;;;;5097802;28;20205;-86
2022/09/09 09:33:14;;;;;;;5.68;3.00;;;18.90;92.60;;;;;;5113674;28;20193;-86
2022/09/09 09:35:40;;;;;;;4.68;2.60;;;19.00;92.80;;;;;;5092292;28;20237;-87
2022/09/09 09:38:22;;;;;;;4.65;2.38;;;18.90;90.00;;;;;;5091572;28;20246;-86
2022/09/09 09:40:59;;;;;;;3.50;2.13;;;18.90;93.10;;;;;;5096544;28;20275;-87
2022/09/09 09:43:28;;;;;;;3.05;2.70;;;19.00;90.70;;;;;;5096717;28;20198;-86
2022/09/09 09:45:55;;;;;;;5.45;2.25;;;19.20;91.30;;;;;;5092785;28;20688;-85
2022/09/09 09:48:21;;;;;;;2.83;2.30;;;19.40;87.70;;;;;;5096775;28;20194;-86
2022/09/09 09:51:07;;;;;;;4.43;2.42;;;19.60;86.50;;;;;;5098119;28;20182;-86
2022/09/09 09:53:36;;;;;;;5.00;2.55;;;19.90;88.40;;;;;;5099695;28;20191;-86
2022/09/09 09:56:15;;;;;;;3.25;2.28;;;19.80;83.60;;;;;;5110478;28;20493;-86
2022/09/09 09:58:50;;;;;;;6.03;2.17;;;19.50;87.00;;;;;;5097388;28;20190;-85
2022/09/09 10:01:33;;;;;;;3.67;2.40;;;19.50;82.50;;;;;;5094318;28;20182;-85
2022/09/09 10:04:22;;;;;;;4.85;2.55;;;19.80;85.90;;;;;;5097994;28;20297;-85
2022/09/09 10:06:49;;;;;;;3.65;2.53;;;20.20;82.70;;;;;;5097073;28;20179;-86
2022/09/09 10:09:32;;;;;;;3.90;2.83;;;20.30;82.00;;;;;;5092050;28;20249;-85
2022/09/09 10:12:20;;;;;;;3.33;2.33;;;20.40;83.90;;;;;;5097182;28;20203;-86
2022/09/09 10:14:54;;;;;;;3.72;2.20;;;19.90;80.20;;;;;;5109258;28;20186;-85
2022/09/09 10:17:27;;;;;;;4.57;2.72;;;19.90;81.30;;;;;;5095037;28;20179;-86
2022/09/09 10:20:21;;;;;;;6.15;2.80;;;20.10;83.50;;;;;;5091546;28;20221;-86
2022/09/09 10:23:11;;;;;;;3.80;2.40;;;20.40;82.90;;;;;;5088665;28;20222;-85
2022/09/09 10:25:51;;;;;;;3.72;2.53;;;20.40;79.40;;;;;;5095563;28;20213;-86
2022/09/09 10:28:17;;;;;;;5.10;2.47;;;20.50;78.50;;;;;;5093512;28;20175;-85
2022/09/09 10:31:08;;;;;;;4.20;2.65;;;20.60;77.50;;;;;;5092391;28;20216;-86
2022/09/09 10:34:28;;;;;;;4.25;2.35;;;20.60;77.00;;;;;;5094270;28;20270;-86
2022/09/09 10:36:54;;;;;;;4.55;2.88;;;20.70;77.10;;;;;;5053783;28;20199;-86
2022/09/09 10:39:30;;;;;;;4.10;2.30;;;21.00;73.40;;;;;;5100497;28;20234;-85
2022/09/09 10:42:09;;;;;;;2.00;1.90;;;21.30;73.50;;;;;;5098702;28;20175;-85
2022/09/09 10:44:53;;;;;;;4.43;2.60;;;21.20;70.40;;;;;;5096443;28;20896;-87
2022/09/09 10:47:40;;;;;;;3.67;2.28;;;21.20;72.10;;;;;;5097002;28;20187;-85
2022/09/09 10:50:19;;;;;;;3.90;2.78;;;21.70;68.70;;;;;;5096544;28;20203;-85
2022/09/09 10:53:18;;;;;;;4.05;2.50;;;21.90;67.90;;;;;;5093496;28;20183;-85
2022/09/09 10:55:51;;;;;;;3.95;2.20;;;21.80;66.30;;;;;;5093284;28;20188;-84
2022/09/09 10:59:09;;;;;;;2.47;2.10;;;21.70;67.60;;;;;;5091289;28;20195;-84
2022/09/09 11:01:49;;;;;;;3.83;2.35;;;21.90;66.00;;;;;;5070231;28;20722;-85
2022/09/09 11:04:27;;;;;;;2.65;2.08;;;22.40;65.10;;;;;;5095984;28;20235;-85
2022/09/09 11:06:55;;;;;;;3.53;2.40;;;22.60;65.60;;;;;;5092920;28;20199;-85
2022/09/09 11:09:32;;;;;;;3.35;2.22;;;22.70;62.10;;;;;;5093597;28;20230;-85
2022/09/09 11:12:03;;;;;;;3.92;2.35;;;22.90;61.40;;;;;;5095160;28;20174;-85
2022/09/09 11:14:38;;;;;;;6.53;2.28;;;22.70;62.10;;;;;;5092691;28;20183;-85
2022/09/09 11:17:10;;;;;;;3.90;2.35;;;23.20;58.70;;;;;;5093858;28;20670;-85
2022/09/09 11:19:43;;;;;;;3.67;2.75;;;23.00;60.20;;;;;;5091463;28;20278;-85
2022/09/09 11:22:29;;;;;;;3.28;2.33;;;22.70;60.70;;;;;;5096090;28;20222;-83
2022/09/09 11:25:00;;;;;;;5.25;2.63;;;22.90;62.50;;;;;;5094540;28;20198;-85
2022/09/09 11:27:31;;;;;;;2.35;2.15;;;23.50;60.10;;;;;;5094155;28;20187;-84
2022/09/09 11:30:12;;;;;;;3.45;2.72;;;23.60;56.60;;;;;;5092727;28;20210;-84
2022/09/09 11:32:56;;;;;;;2.45;2.25;;;23.80;57.40;;;;;;5096695;28;20187;-84
2022/09/09 11:35:49;;;;;;;2.90;2.58;;;24.10;55.60;;;;;;5093769;28;20192;-84
2022/09/09 11:38:18;;;;;;;2.97;2.42;;;24.10;57.30;;;;;;5098452;28;20191;-85
2022/09/09 11:40:44;;;;;;;2.58;2.38;;;23.90;60.60;;;;;;5092827;28;20829;-83
2022/09/09 11:43:18;;;;;;;3.10;2.45;;;23.20;63.50;;;;;;5091601;28;20198;-84
2022/09/09 11:45:52;;;;;;;4.35;2.90;;;22.40;66.20;;;;;;5098304;28;20235;-85
2022/09/09 11:48:36;;;;;;;3.53;2.45;;;22.20;68.00;;;;;;5097959;28;20175;-85
2022/09/09 11:51:08;;;;;;;3.17;2.70;;;22.30;67.80;;;;;;5098608;28;20188;-85
2022/09/09 11:53:58;;;;;;;3.28;2.35;;;22.90;66.50;;;;;;5101028;28;20217;-85
2022/09/09 11:56:33;;;;;;;3.30;2.70;;;23.40;62.20;;;;;;5102474;28;20167;-86
2022/09/09 11:59:05;;;;;;;3.65;2.60;;;24.10;60.00;;;;;;5098787;28;20226;-85
2022/09/09 12:01:42;;;;;;;3.58;2.45;;;24.00;59.30;;;;;;5104134;28;20273;-85
2022/09/09 12:04:31;;;;;;;2.50;2.30;;;23.70;59.60;;;;;;5095966;28;20182;-84
2022/09/09 12:06:57;;;;;;;4.40;2.55;;;23.30;61.40;;;;;;5098620;28;20180;-84
2022/09/09 12:09:25;;;;;;;3.78;2.70;;;23.10;62.50;;;;;;5095784;28;20252;-85
2022/09/09 12:11:51;;;;;;;4.05;2.55;;;22.70;59.70;;;;;;5098647;28;20175;-85
2022/09/09 12:14:40;;;;;;;3.20;2.58;;;22.40;58.80;;;;;;5097403;28;20294;-85
2022/09/09 12:17:19;;;;;;;5.78;2.70;;;22.50;61.30;;;;;;5093723;28;20250;-85
2022/09/09 12:19:45;;;;;;;3.63;2.40;;;22.50;60.30;;;;;;5094649;28;20263;-86
2022/09/09 12:22:31;;;;;;;2.80;2.53;;;22.60;61.30;;;;;;5096399;28;20218;-85
2022/09/09 12:25:17;;;;;;;3.13;2.40;;;22.40;61.50;;;;;;5103309;28;20254;-86
2022/09/09 12:28:01;;;;;;;3.28;2.58;;;22.30;62.50;;;;;;5103295;28;20258;-87
2022/09/09 12:30:55;;;;;;;4.60;2.80;;;22.20;63.00;;;;;;5104920;28;20226;-87
2022/09/09 12:33:21;;;;;;;4.45;2.70;;;22.10;65.10;;;;;;5100705;28;20179;-87
2022/09/09 12:35:58;;;;;;;2.45;2.22;;;22.30;68.30;;;;;;5107605;28;20202;-86
2022/09/09 12:38:36;;;;;;;3.47;2.60;;;22.40;68.50;;;;;;5103056;28;20191;-86
2022/09/09 12:41:02;;;;;;;3.53;2.40;;;22.90;66.80;;;;;;5100525;28;20178;-86
2022/09/09 12:43:28;;;;;;;4.57;2.72;;;23.40;59.80;;;;;;5096223;28;20179;-86
2022/09/09 12:46:12;;;;;;;3.53;2.28;;;23.80;59.70;;;;;;5099895;28;20543;-86
2022/09/09 12:48:41;;;;;;;2.75;2.17;;;24.10;55.50;;;;;;5099311;28;20238;-85
2022/09/09 12:51:28;;;;;;;3.28;2.25;;;23.40;56.80;;;;;;5100284;28;20204;-87
2022/09/09 12:53:55;;;;;;;2.28;2.08;;;22.80;59.70;;;;;;5099286;28;20228;-85
2022/09/09 12:56:26;;;;;;;5.70;2.63;;;22.20;65.50;;;;;;5096889;28;20305;-86
2022/09/09 12:58:54;;;;;;;2.53;2.33;;;21.70;68.00;;;;;;5095328;28;20213;-86
2022/09/09 13:01:32;;;;;;;5.90;2.40;;;21.50;68.20;;;;;;5098532;28;20464;-85
2022/09/09 13:03:59;;;;;;;4.85;2.50;;;21.50;67.10;;;;;;5097993;28;20196;-86
2022/09/09 13:06:27;;;;;;;3.90;2.67;;;21.50;67.90;;;;;;5099207;28;20231;-86
2022/09/09 13:08:54;;;;;;;3.13;2.30;;;21.50;66.30;;;;;;5093612;28;20286;-85
2022/09/09 13:11:29;;;;;;;4.70;2.35;;;21.50;68.50;;;;;;5098584;28;20615;-86
2022/09/09 13:13:56;;;;;;;4.38;2.28;;;21.60;68.70;;;;;;5101380;28;20182;-86
2022/09/09 13:16:32;;;;;;;3.88;2.50;;;21.80;69.40;;;;;;5098425;28;20247;-86
2022/09/09 13:19:00;;;;;;;4.80;2.70;;;22.10;67.70;;;;;;5096482;28;20210;-86